新潟空港の過去48時間の天気

新潟空港 (Niigata)

現在時刻: 10/16 15:50 JST (10/16 06:50 UTC) 以下の時間は現地時間です。

過去48時間のMETAR気象情報
時間 風向 風速(m/s) 視程 気温(℃) 湿度(%) 気圧(hPa) 天気現象
16 15:00 2 10km以上 19 68 1013
16 14:00 北北西 3 10km以上 20 64 1012
16 13:00 北西 3 10km以上 20 64 1013
16 12:00 不定 1 10km以上 19 64 1014
16 11:00 4 10km以上 18 68 1014
16 10:00 4 10km以上 17 72 1015
16 09:00 4 10km以上 16 77 1015
16 08:00 南南東 3 10km以上 15 82 1015
16 07:00 5 10km以上 14 88 1016
16 06:10 3 10km以上 14 88 1016
15 21:00 南東 2 10km以上 16 82 1017
15 20:00 南東 2 10km以上 16 82 1017
15 19:00 北東 1 10km以上 18 77 1017
15 18:00 北東 2 10km以上 19 73 1016
15 17:00 不定 1 10km以上 19 68 1016
15 16:00 北北西 2 10km以上 20 64 1016
15 15:00 2 10km以上 20 64 1016
15 14:00 3 10km以上 20 60 1016
15 13:00 不定 2 10km以上 21 53 1017
15 12:00 3 10km以上 20 56 1018
15 11:00 2 10km以上 19 60 1018
15 10:00 3 10km以上 18 68 1019
15 09:00 南南東 3 10km以上 16 77 1019
15 08:00 4 10km以上 15 82 1020
15 07:00 南南東 2 10km以上 14 88 1019
15 06:10 3 10km以上 13 94 1019
14 21:00 南南東 3 10km以上 15 88 1020
14 20:00 南東 2 10km以上 17 72 1020
14 19:00 北東 2 10km以上 18 73 1020
14 18:00 2 10km以上 18 68 1020
14 17:00 3 10km以上 18 68 1020
14 16:00 3 10km以上 19 68 1019
RJSN 160600Z 35003KT 9999 FEW040 SCT070 BKN/// 19/13 Q1013
RJSN 160500Z 33006KT 9999 FEW030 SCT070 BKN/// 20/13 Q1012
RJSN 160400Z 31006KT 9999 FEW030 SCT070 BKN090 20/13 Q1013
RJSN 160300Z VRB02KT 9999 FEW030 SCT070 BKN090 19/12 Q1014
RJSN 160200Z 18007KT 9999 FEW030 SCT070 BKN090 18/12 Q1014
RJSN 160100Z 17007KT 9999 FEW030 BKN080 17/12 Q1015
RJSN 160000Z 17007KT 9999 FEW030 BKN080 16/12 Q1015
RJSN 152300Z 16006KT 9999 FEW030 SCT080 BKN/// 15/12 Q1015
RJSN 152200Z 18009KT 9999 FEW030 SCT070 BKN/// 14/12 Q1016
RJSN 152110Z 18006KT 9999 FEW030 BKN070 BKN/// 14/12 Q1016 RMK 1CU030 5AC070 A3000
RJSN 151200Z 14004KT 9999 FEW030 16/13 Q1017
RJSN 151100Z 14004KT 9999 FEW030 16/13 Q1017
RJSN 151000Z 05002KT 9999 FEW030 18/14 Q1017
RJSN 150900Z 05003KT 9999 FEW030 19/14 Q1016
RJSN 150800Z VRB02KT 9999 FEW040 SCT/// 19/13 Q1016
RJSN 150700Z 34004KT 290V360 9999 FEW040 SCT/// 20/13 Q1016
RJSN 150600Z 35003KT 300V030 9999 FEW040 SCT/// 20/13 Q1016
RJSN 150500Z 35006KT 320V020 9999 FEW040 BKN/// 20/12 Q1016
RJSN 150400Z VRB03KT 9999 FEW030 SCT170 BKN/// 21/11 Q1017
RJSN 150300Z 19005KT 150V230 9999 FEW030 SCT070 BKN090 20/11 Q1018
RJSN 150200Z 17004KT 100V210 9999 FEW030 SCT070 BKN090 19/11 Q1018
RJSN 150100Z 17006KT 9999 FEW030 SCT070 BKN180 18/12 Q1019
RJSN 150000Z 16006KT 9999 FEW030 SCT070 BKN180 16/12 Q1019
RJSN 142300Z 17007KT 9999 FEW030 SCT070 BKN180 15/12 Q1020
RJSN 142200Z 15004KT 9999 FEW030 BKN/// 14/12 Q1019
RJSN 142110Z 17005KT 9999 FEW030 SCT070 BKN/// 13/12 Q1019 RMK 1CU030 3AC070 A3011
RJSN 141200Z 16006KT 9999 FEW020 15/13 Q1020
RJSN 141100Z 14004KT 9999 FEW020 SCT030 17/12 Q1020
RJSN 141000Z 04003KT 9999 FEW020 BKN030 18/13 Q1020
RJSN 140900Z 01003KT 9999 FEW030 18/12 Q1020
RJSN 140800Z 01006KT 9999 FEW030 18/12 Q1020
RJSN 140700Z 35006KT 320V020 9999 FEW030 SCT050 19/13 Q1019